sensor_id;sensor_type;location;lat;lon;timestamp;temperature;humidity
70867;HTU21D;58487;53.474;49.470;2022-09-12T00:00:04;10.98;118.99
70867;HTU21D;58487;53.474;49.470;2022-09-12T00:02:31;11.11;118.99
70867;HTU21D;58487;53.474;49.470;2022-09-12T00:04:57;10.85;118.99
70867;HTU21D;58487;53.474;49.470;2022-09-12T00:07:24;10.90;118.99
70867;HTU21D;58487;53.474;49.470;2022-09-12T00:09:50;10.25;118.99
70867;HTU21D;58487;53.474;49.470;2022-09-12T00:12:17;11.15;118.99
70867;HTU21D;58487;53.474;49.470;2022-09-12T00:14:43;10.84;118.99
70867;HTU21D;58487;53.474;49.470;2022-09-12T00:17:09;11.41;118.99
70867;HTU21D;58487;53.474;49.470;2022-09-12T00:19:35;11.23;118.99
70867;HTU21D;58487;53.474;49.470;2022-09-12T00:22:01;11.28;118.99
70867;HTU21D;58487;53.474;49.470;2022-09-12T00:24:27;11.19;118.99
70867;HTU21D;58487;53.474;49.470;2022-09-12T00:26:53;11.11;118.99
70867;HTU21D;58487;53.474;49.470;2022-09-12T00:29:21;11.08;118.99
70867;HTU21D;58487;53.474;49.470;2022-09-12T00:31:47;11.13;118.99
70867;HTU21D;58487;53.474;49.470;2022-09-12T00:34:14;10.97;118.99
70867;HTU21D;58487;53.474;49.470;2022-09-12T00:36:40;10.95;118.99
70867;HTU21D;58487;53.474;49.470;2022-09-12T00:39:06;11.08;118.99
70867;HTU21D;58487;53.474;49.470;2022-09-12T00:41:36;10.83;118.99
70867;HTU21D;58487;53.474;49.470;2022-09-12T00:52:14;10.66;118.99
70867;HTU21D;58487;53.474;49.470;2022-09-12T00:54:58;11.11;118.99
70867;HTU21D;58487;53.474;49.470;2022-09-12T00:57:29;10.96;118.99
70867;HTU21D;58487;53.474;49.470;2022-09-12T01:00:00;10.99;118.99
70867;HTU21D;58487;53.474;49.470;2022-09-12T01:02:26;10.70;118.99
70867;HTU21D;58487;53.474;49.470;2022-09-12T01:04:52;10.70;118.99
70867;HTU21D;58487;53.474;49.470;2022-09-12T01:07:19;10.62;118.99
70867;HTU21D;58487;53.474;49.470;2022-09-12T01:09:46;10.59;118.99
70867;HTU21D;58487;53.474;49.470;2022-09-12T01:12:14;10.43;118.99
70867;HTU21D;58487;53.474;49.470;2022-09-12T01:14:40;10.87;118.99
70867;HTU21D;58487;53.474;49.470;2022-09-12T01:17:06;11.15;118.99
70867;HTU21D;58487;53.474;49.470;2022-09-12T01:22:50;10.86;118.99
70867;HTU21D;58487;53.474;49.470;2022-09-12T01:31:14;10.85;118.99
70867;HTU21D;58487;53.474;49.470;2022-09-12T01:42:07;10.94;118.99
70867;HTU21D;58487;53.474;49.470;2022-09-12T01:50:12;10.84;116.29
70867;HTU21D;58487;53.474;49.470;2022-09-12T01:52:59;10.83;118.99
70867;HTU21D;58487;53.474;49.470;2022-09-12T01:55:37;10.92;118.99
70867;HTU21D;58487;53.474;49.470;2022-09-12T01:58:16;10.70;118.99
70867;HTU21D;58487;53.474;49.470;2022-09-12T02:03:51;10.71;118.99
70867;HTU21D;58487;53.474;49.470;2022-09-12T02:06:25;10.68;118.99
70867;HTU21D;58487;53.474;49.470;2022-09-12T02:08:56;10.68;118.99
70867;HTU21D;58487;53.474;49.470;2022-09-12T02:11:25;10.60;118.99
70867;HTU21D;58487;53.474;49.470;2022-09-12T02:14:06;10.51;118.99
70867;HTU21D;58487;53.474;49.470;2022-09-12T02:16:39;10.72;118.99
70867;HTU21D;58487;53.474;49.470;2022-09-12T02:19:14;10.75;118.99
70867;HTU21D;58487;53.474;49.470;2022-09-12T02:21:45;10.89;102.89
70867;HTU21D;58487;53.474;49.470;2022-09-12T02:24:13;10.75;118.99
70867;HTU21D;58487;53.474;49.470;2022-09-12T02:26:49;10.67;118.99
70867;HTU21D;58487;53.474;49.470;2022-09-12T02:29:15;10.62;118.99
70867;HTU21D;58487;53.474;49.470;2022-09-12T02:31:47;10.64;118.99
70867;HTU21D;58487;53.474;49.470;2022-09-12T02:39:56;10.38;118.99
70867;HTU21D;58487;53.474;49.470;2022-09-12T02:42:24;10.66;118.99
70867;HTU21D;58487;53.474;49.470;2022-09-12T02:44:52;10.68;118.99
70867;HTU21D;58487;53.474;49.470;2022-09-12T02:47:31;10.30;118.99
70867;HTU21D;58487;53.474;49.470;2022-09-12T02:49:59;10.49;118.99
70867;HTU21D;58487;53.474;49.470;2022-09-12T02:52:26;10.53;118.99
70867;HTU21D;58487;53.474;49.470;2022-09-12T02:54:54;10.68;118.99
70867;HTU21D;58487;53.474;49.470;2022-09-12T02:57:22;10.64;118.99
70867;HTU21D;58487;53.474;49.470;2022-09-12T02:59:49;10.67;118.99
70867;HTU21D;58487;53.474;49.470;2022-09-12T03:16:26;10.70;118.99
70867;HTU21D;58487;53.474;49.470;2022-09-12T03:19:09;10.75;118.99
70867;HTU21D;58487;53.474;49.470;2022-09-12T03:24:50;10.99;118.99
70867;HTU21D;58487;53.474;49.470;2022-09-12T03:28:14;10.94;118.99
70867;HTU21D;58487;53.474;49.470;2022-09-12T03:30:14;10.35;118.99
70867;HTU21D;58487;53.474;49.470;2022-09-12T03:32:46;10.77;118.99
70867;HTU21D;58487;53.474;49.470;2022-09-12T03:35:13;10.85;118.99
70867;HTU21D;58487;53.474;49.470;2022-09-12T03:37:40;10.71;118.99
70867;HTU21D;58487;53.474;49.470;2022-09-12T03:40:08;10.92;118.99
70867;HTU21D;58487;53.474;49.470;2022-09-12T03:42:34;10.71;118.99
70867;HTU21D;58487;53.474;49.470;2022-09-12T03:45:00;9.48;118.99
70867;HTU21D;58487;53.474;49.470;2022-09-12T03:47:26;10.66;118.99
70867;HTU21D;58487;53.474;49.470;2022-09-12T03:49:52;10.94;118.99
70867;HTU21D;58487;53.474;49.470;2022-09-12T03:52:18;10.15;118.99
70867;HTU21D;58487;53.474;49.470;2022-09-12T03:54:45;11.01;118.99
70867;HTU21D;58487;53.474;49.470;2022-09-12T03:57:11;10.19;118.99
70867;HTU21D;58487;53.474;49.470;2022-09-12T03:59:37;10.77;118.99
70867;HTU21D;58487;53.474;49.470;2022-09-12T04:02:03;10.69;118.99
70867;HTU21D;58487;53.474;49.470;2022-09-12T04:04:30;10.55;118.99
70867;HTU21D;58487;53.474;49.470;2022-09-12T04:06:56;10.63;118.99
70867;HTU21D;58487;53.474;49.470;2022-09-12T04:09:22;10.50;118.99
70867;HTU21D;58487;53.474;49.470;2022-09-12T04:11:48;10.87;118.99
70867;HTU21D;58487;53.474;49.470;2022-09-12T04:14:14;10.68;118.99
70867;HTU21D;58487;53.474;49.470;2022-09-12T04:16:40;10.68;118.99
70867;HTU21D;58487;53.474;49.470;2022-09-12T04:19:06;10.66;118.99
70867;HTU21D;58487;53.474;49.470;2022-09-12T04:21:33;10.69;118.99
70867;HTU21D;58487;53.474;49.470;2022-09-12T04:23:59;10.69;118.99
70867;HTU21D;58487;53.474;49.470;2022-09-12T04:26:26;10.71;118.99
70867;HTU21D;58487;53.474;49.470;2022-09-12T04:28:54;10.89;118.99
70867;HTU21D;58487;53.474;49.470;2022-09-12T04:31:23;10.54;118.99
70867;HTU21D;58487;53.474;49.470;2022-09-12T04:33:54;10.89;118.72
70867;HTU21D;58487;53.474;49.470;2022-09-12T04:36:20;11.14;118.99
70867;HTU21D;58487;53.474;49.470;2022-09-12T04:38:48;10.94;118.99
70867;HTU21D;58487;53.474;49.470;2022-09-12T04:41:19;10.84;118.99
70867;HTU21D;58487;53.474;49.470;2022-09-12T04:43:50;10.82;118.99
70867;HTU21D;58487;53.474;49.470;2022-09-12T04:46:17;10.73;118.99
70867;HTU21D;58487;53.474;49.470;2022-09-12T04:48:55;11.00;118.99
70867;HTU21D;58487;53.474;49.470;2022-09-12T04:51:28;10.83;118.99
70867;HTU21D;58487;53.474;49.470;2022-09-12T04:54:20;11.03;118.99
70867;HTU21D;58487;53.474;49.470;2022-09-12T04:56:48;10.93;118.99
70867;HTU21D;58487;53.474;49.470;2022-09-12T04:59:15;10.98;118.99
70867;HTU21D;58487;53.474;49.470;2022-09-12T05:01:42;11.18;118.99
70867;HTU21D;58487;53.474;49.470;2022-09-12T05:04:11;11.15;118.99
70867;HTU21D;58487;53.474;49.470;2022-09-12T05:06:38;11.31;118.99
70867;HTU21D;58487;53.474;49.470;2022-09-12T05:09:07;11.52;118.99
70867;HTU21D;58487;53.474;49.470;2022-09-12T05:11:35;11.45;118.99
70867;HTU21D;58487;53.474;49.470;2022-09-12T05:14:02;11.62;118.99
70867;HTU21D;58487;53.474;49.470;2022-09-12T05:16:28;11.77;118.99
70867;HTU21D;58487;53.474;49.470;2022-09-12T05:18:56;11.91;118.99
70867;HTU21D;58487;53.474;49.470;2022-09-12T05:21:23;11.68;118.99
70867;HTU21D;58487;53.474;49.470;2022-09-12T05:23:51;11.72;118.99
70867;HTU21D;58487;53.474;49.470;2022-09-12T05:26:18;11.68;118.99
70867;HTU21D;58487;53.474;49.470;2022-09-12T05:28:46;11.71;118.99
70867;HTU21D;58487;53.474;49.470;2022-09-12T05:31:14;11.81;118.99
70867;HTU21D;58487;53.474;49.470;2022-09-12T05:33:42;11.90;118.99
70867;HTU21D;58487;53.474;49.470;2022-09-12T05:36:11;11.90;118.99
70867;HTU21D;58487;53.474;49.470;2022-09-12T05:38:38;11.84;118.99
70867;HTU21D;58487;53.474;49.470;2022-09-12T05:41:13;11.94;118.99
70867;HTU21D;58487;53.474;49.470;2022-09-12T05:43:40;11.97;118.99
70867;HTU21D;58487;53.474;49.470;2022-09-12T05:46:12;11.72;118.99
70867;HTU21D;58487;53.474;49.470;2022-09-12T05:48:40;11.79;118.99
70867;HTU21D;58487;53.474;49.470;2022-09-12T05:51:18;11.92;118.99
70867;HTU21D;58487;53.474;49.470;2022-09-12T05:53:47;11.87;118.99
70867;HTU21D;58487;53.474;49.470;2022-09-12T05:56:18;11.92;118.99
70867;HTU21D;58487;53.474;49.470;2022-09-12T05:58:52;11.94;118.99
70867;HTU21D;58487;53.474;49.470;2022-09-12T06:01:19;11.87;118.99
70867;HTU21D;58487;53.474;49.470;2022-09-12T06:03:49;11.96;118.99
70867;HTU21D;58487;53.474;49.470;2022-09-12T06:06:18;11.86;118.99
70867;HTU21D;58487;53.474;49.470;2022-09-12T06:08:46;11.97;118.99
70867;HTU21D;58487;53.474;49.470;2022-09-12T06:11:15;11.58;118.99
70867;HTU21D;58487;53.474;49.470;2022-09-12T06:13:41;11.98;118.99
70867;HTU21D;58487;53.474;49.470;2022-09-12T06:16:12;11.92;118.99
70867;HTU21D;58487;53.474;49.470;2022-09-12T06:18:39;12.14;118.99
70867;HTU21D;58487;53.474;49.470;2022-09-12T06:21:10;11.99;118.99
70867;HTU21D;58487;53.474;49.470;2022-09-12T06:23:38;12.31;118.99
70867;HTU21D;58487;53.474;49.470;2022-09-12T06:26:06;12.25;118.99
70867;HTU21D;58487;53.474;49.470;2022-09-12T06:28:37;12.26;118.99
70867;HTU21D;58487;53.474;49.470;2022-09-12T06:31:05;12.34;118.99
70867;HTU21D;58487;53.474;49.470;2022-09-12T06:33:37;12.17;118.99
70867;HTU21D;58487;53.474;49.470;2022-09-12T06:36:06;12.28;118.99
70867;HTU21D;58487;53.474;49.470;2022-09-12T06:38:32;12.11;118.99
70867;HTU21D;58487;53.474;49.470;2022-09-12T06:40:59;12.38;118.99
70867;HTU21D;58487;53.474;49.470;2022-09-12T06:43:27;12.53;118.99
70867;HTU21D;58487;53.474;49.470;2022-09-12T06:45:53;12.31;118.99
70867;HTU21D;58487;53.474;49.470;2022-09-12T06:48:19;12.67;118.99
70867;HTU21D;58487;53.474;49.470;2022-09-12T06:50:57;12.76;118.99
70867;HTU21D;58487;53.474;49.470;2022-09-12T06:53:24;13.02;118.99
70867;HTU21D;58487;53.474;49.470;2022-09-12T06:56:11;12.84;118.99
70867;HTU21D;58487;53.474;49.470;2022-09-12T06:58:38;13.10;118.99
70867;HTU21D;58487;53.474;49.470;2022-09-12T07:01:08;13.26;109.82
70867;HTU21D;58487;53.474;49.470;2022-09-12T07:03:36;13.22;118.99
70867;HTU21D;58487;53.474;49.470;2022-09-12T07:06:08;13.27;118.99
70867;HTU21D;58487;53.474;49.470;2022-09-12T07:08:34;13.25;111.50
70867;HTU21D;58487;53.474;49.470;2022-09-12T07:13:35;13.43;118.99
70867;HTU21D;58487;53.474;49.470;2022-09-12T07:16:03;13.58;118.99
70867;HTU21D;58487;53.474;49.470;2022-09-12T07:18:30;13.71;118.99
70867;HTU21D;58487;53.474;49.470;2022-09-12T07:21:01;13.65;118.99
70867;HTU21D;58487;53.474;49.470;2022-09-12T07:23:29;14.01;118.99
70867;HTU21D;58487;53.474;49.470;2022-09-12T07:25:56;14.12;118.99
70867;HTU21D;58487;53.474;49.470;2022-09-12T07:28:27;14.22;118.99
70867;HTU21D;58487;53.474;49.470;2022-09-12T07:30:54;14.03;118.99
70867;HTU21D;58487;53.474;49.470;2022-09-12T07:33:26;14.13;118.99
70867;HTU21D;58487;53.474;49.470;2022-09-12T07:35:52;14.04;118.99
70867;HTU21D;58487;53.474;49.470;2022-09-12T07:38:22;14.36;118.99
70867;HTU21D;58487;53.474;49.470;2022-09-12T07:40:51;14.34;118.99
70867;HTU21D;58487;53.474;49.470;2022-09-12T07:43:17;14.54;118.99
70867;HTU21D;58487;53.474;49.470;2022-09-12T07:45:43;14.86;118.99
70867;HTU21D;58487;53.474;49.470;2022-09-12T07:48:09;14.82;118.99
70867;HTU21D;58487;53.474;49.470;2022-09-12T07:50:37;14.92;118.99
70867;HTU21D;58487;53.474;49.470;2022-09-12T07:53:03;14.72;118.99
70867;HTU21D;58487;53.474;49.470;2022-09-12T07:55:30;14.56;118.99
70867;HTU21D;58487;53.474;49.470;2022-09-12T07:57:56;14.39;118.99
70867;HTU21D;58487;53.474;49.470;2022-09-12T08:00:22;14.36;118.99
70867;HTU21D;58487;53.474;49.470;2022-09-12T08:02:52;14.38;118.99
70867;HTU21D;58487;53.474;49.470;2022-09-12T08:05:19;14.59;118.99
70867;HTU21D;58487;53.474;49.470;2022-09-12T08:07:47;14.66;118.99
70867;HTU21D;58487;53.474;49.470;2022-09-12T08:10:14;14.56;118.99
70867;HTU21D;58487;53.474;49.470;2022-09-12T08:12:40;14.89;118.99
70867;HTU21D;58487;53.474;49.470;2022-09-12T08:15:07;15.14;118.99
70867;HTU21D;58487;53.474;49.470;2022-09-12T08:17:33;15.22;118.99
70867;HTU21D;58487;53.474;49.470;2022-09-12T08:19:59;15.34;118.99
70867;HTU21D;58487;53.474;49.470;2022-09-12T08:22:25;15.29;118.99
70867;HTU21D;58487;53.474;49.470;2022-09-12T08:24:51;15.17;118.99
70867;HTU21D;58487;53.474;49.470;2022-09-12T08:27:18;15.24;118.99
70867;HTU21D;58487;53.474;49.470;2022-09-12T08:29:44;15.06;118.99
70867;HTU21D;58487;53.474;49.470;2022-09-12T08:32:10;15.00;118.99
70867;HTU21D;58487;53.474;49.470;2022-09-12T08:34:36;14.88;118.99
70867;HTU21D;58487;53.474;49.470;2022-09-12T08:37:02;14.97;118.99
70867;HTU21D;58487;53.474;49.470;2022-09-12T08:39:28;14.78;118.99
70867;HTU21D;58487;53.474;49.470;2022-09-12T08:42:00;14.66;118.99
70867;HTU21D;58487;53.474;49.470;2022-09-12T08:57:44;14.48;118.99
70867;HTU21D;58487;53.474;49.470;2022-09-12T09:00:15;14.45;118.99
70867;HTU21D;58487;53.474;49.470;2022-09-12T09:11:36;14.64;118.99
70867;HTU21D;58487;53.474;49.470;2022-09-12T09:16:51;14.66;118.99
70867;HTU21D;58487;53.474;49.470;2022-09-12T09:19:21;14.72;118.99
70867;HTU21D;58487;53.474;49.470;2022-09-12T09:21:57;14.85;118.99
70867;HTU21D;58487;53.474;49.470;2022-09-12T09:24:27;15.16;118.99
70867;HTU21D;58487;53.474;49.470;2022-09-12T09:27:01;15.17;118.99
70867;HTU21D;58487;53.474;49.470;2022-09-12T09:29:37;15.03;118.99
70867;HTU21D;58487;53.474;49.470;2022-09-12T09:34:52;14.92;118.99
70867;HTU21D;58487;53.474;49.470;2022-09-12T09:37:33;15.18;118.99
70867;HTU21D;58487;53.474;49.470;2022-09-12T09:40:16;15.12;118.99
70867;HTU21D;58487;53.474;49.470;2022-09-12T09:43:04;15.36;118.99
70867;HTU21D;58487;53.474;49.470;2022-09-12T09:45:31;15.37;118.99
70867;HTU21D;58487;53.474;49.470;2022-09-12T09:50:36;15.29;118.99
70867;HTU21D;58487;53.474;49.470;2022-09-12T09:53:04;15.28;118.99
70867;HTU21D;58487;53.474;49.470;2022-09-12T09:55:39;15.33;118.99
70867;HTU21D;58487;53.474;49.470;2022-09-12T09:58:07;15.46;118.99
70867;HTU21D;58487;53.474;49.470;2022-09-12T10:00:35;15.49;118.99
70867;HTU21D;58487;53.474;49.470;2022-09-12T10:05:53;15.56;118.99
70867;HTU21D;58487;53.474;49.470;2022-09-12T10:08:24;15.60;118.99
70867;HTU21D;58487;53.474;49.470;2022-09-12T10:13:52;15.54;118.99
70867;HTU21D;58487;53.474;49.470;2022-09-12T10:16:21;15.57;118.99
70867;HTU21D;58487;53.474;49.470;2022-09-12T10:18:49;15.85;118.99
70867;HTU21D;58487;53.474;49.470;2022-09-12T10:23:57;16.60;118.99
70867;HTU21D;58487;53.474;49.470;2022-09-12T10:26:25;16.64;118.99
70867;HTU21D;58487;53.474;49.470;2022-09-12T10:28:53;16.66;118.99
70867;HTU21D;58487;53.474;49.470;2022-09-12T10:31:32;16.46;118.99
70867;HTU21D;58487;53.474;49.470;2022-09-12T10:33:59;16.49;118.99
70867;HTU21D;58487;53.474;49.470;2022-09-12T10:36:35;16.17;118.99
70867;HTU21D;58487;53.474;49.470;2022-09-12T10:39:03;16.29;118.99
70867;HTU21D;58487;53.474;49.470;2022-09-12T10:41:37;16.63;118.99
70867;HTU21D;58487;53.474;49.470;2022-09-12T10:44:11;16.70;118.99
70867;HTU21D;58487;53.474;49.470;2022-09-12T10:46:39;16.72;118.99
70867;HTU21D;58487;53.474;49.470;2022-09-12T10:49:31;16.50;118.99
70867;HTU21D;58487;53.474;49.470;2022-09-12T10:54:42;16.69;118.99
70867;HTU21D;58487;53.474;49.470;2022-09-12T11:00:03;17.01;118.99
70867;HTU21D;58487;53.474;49.470;2022-09-12T11:05:10;17.73;118.99
70867;HTU21D;58487;53.474;49.470;2022-09-12T11:16:05;16.74;118.99
70867;HTU21D;58487;53.474;49.470;2022-09-12T11:21:13;16.11;118.99
70867;HTU21D;58487;53.474;49.470;2022-09-12T11:24:07;16.07;118.99
70867;HTU21D;58487;53.474;49.470;2022-09-12T11:29:50;15.74;118.99
70867;HTU21D;58487;53.474;49.470;2022-09-12T11:32:42;15.61;118.99
70867;HTU21D;58487;53.474;49.470;2022-09-12T11:35:30;15.91;118.99
70867;HTU21D;58487;53.474;49.470;2022-09-12T11:38:51;15.98;118.99
70867;HTU21D;58487;53.474;49.470;2022-09-12T11:41:24;16.56;118.99
70867;HTU21D;58487;53.474;49.470;2022-09-12T11:52:00;16.99;118.99
70867;HTU21D;58487;53.474;49.470;2022-09-12T12:00:04;16.88;118.99
70867;HTU21D;58487;53.474;49.470;2022-09-12T12:02:38;16.77;118.99
70867;HTU21D;58487;53.474;49.470;2022-09-12T12:05:23;16.64;118.99
70867;HTU21D;58487;53.474;49.470;2022-09-12T12:08:00;16.44;118.99
70867;HTU21D;58487;53.474;49.470;2022-09-12T12:12:53;16.07;118.99
70867;HTU21D;58487;53.474;49.470;2022-09-12T12:15:21;15.87;118.99
70867;HTU21D;58487;53.474;49.470;2022-09-12T12:18:05;15.81;118.99
70867;HTU21D;58487;53.474;49.470;2022-09-12T12:20:31;15.72;118.99
70867;HTU21D;58487;53.474;49.470;2022-09-12T12:22:58;15.58;118.99
70867;HTU21D;58487;53.474;49.470;2022-09-12T12:25:52;15.59;118.99
70867;HTU21D;58487;53.474;49.470;2022-09-12T12:31:03;15.81;118.99
70867;HTU21D;58487;53.474;49.470;2022-09-12T12:43:45;15.53;118.99
70867;HTU21D;58487;53.474;49.470;2022-09-12T12:46:13;15.73;118.99
70867;HTU21D;58487;53.474;49.470;2022-09-12T12:51:35;15.81;118.99
70867;HTU21D;58487;53.474;49.470;2022-09-12T12:54:07;15.76;118.99
70867;HTU21D;58487;53.474;49.470;2022-09-12T12:57:14;15.54;118.99
70867;HTU21D;58487;53.474;49.470;2022-09-12T12:59:55;15.52;118.99
70867;HTU21D;58487;53.474;49.470;2022-09-12T13:02:32;15.49;118.99
70867;HTU21D;58487;53.474;49.470;2022-09-12T13:05:01;15.68;118.99
70867;HTU21D;58487;53.474;49.470;2022-09-12T13:07:37;15.77;118.99
70867;HTU21D;58487;53.474;49.470;2022-09-12T13:10:06;15.47;118.99
70867;HTU21D;58487;53.474;49.470;2022-09-12T13:12:37;15.59;118.99
70867;HTU21D;58487;53.474;49.470;2022-09-12T13:15:40;15.63;118.99
70867;HTU21D;58487;53.474;49.470;2022-09-12T13:18:39;15.51;118.99
70867;HTU21D;58487;53.474;49.470;2022-09-12T13:21:23;15.52;118.99
70867;HTU21D;58487;53.474;49.470;2022-09-12T13:24:11;15.38;118.99
70867;HTU21D;58487;53.474;49.470;2022-09-12T13:26:43;15.29;118.99
70867;HTU21D;58487;53.474;49.470;2022-09-12T13:29:17;15.25;118.99
70867;HTU21D;58487;53.474;49.470;2022-09-12T13:31:55;15.28;118.99
70867;HTU21D;58487;53.474;49.470;2022-09-12T13:34:34;15.13;118.99
70867;HTU21D;58487;53.474;49.470;2022-09-12T13:42:45;15.22;118.99
70867;HTU21D;58487;53.474;49.470;2022-09-12T13:45:21;15.18;118.99
70867;HTU21D;58487;53.474;49.470;2022-09-12T13:47:53;15.13;118.99
70867;HTU21D;58487;53.474;49.470;2022-09-12T13:50:26;15.19;118.99
70867;HTU21D;58487;53.474;49.470;2022-09-12T13:53:01;14.99;118.99
70867;HTU21D;58487;53.474;49.470;2022-09-12T13:55:31;14.82;118.99
70867;HTU21D;58487;53.474;49.470;2022-09-12T13:58:01;15.06;118.99
70867;HTU21D;58487;53.474;49.470;2022-09-12T14:00:29;14.77;118.99
70867;HTU21D;58487;53.474;49.470;2022-09-12T14:02:58;14.88;118.99
70867;HTU21D;58487;53.474;49.470;2022-09-12T14:05:47;14.68;118.99
70867;HTU21D;58487;53.474;49.470;2022-09-12T14:08:20;14.92;118.99
70867;HTU21D;58487;53.474;49.470;2022-09-12T14:10:49;14.78;118.99
70867;HTU21D;58487;53.474;49.470;2022-09-12T14:13:19;14.75;118.99
70867;HTU21D;58487;53.474;49.470;2022-09-12T14:15:47;14.68;118.99
70867;HTU21D;58487;53.474;49.470;2022-09-12T14:18:28;14.64;118.99
70867;HTU21D;58487;53.474;49.470;2022-09-12T14:21:08;14.55;118.99
70867;HTU21D;58487;53.474;49.470;2022-09-12T14:23:41;14.51;118.99
70867;HTU21D;58487;53.474;49.470;2022-09-12T14:26:11;14.34;118.99
70867;HTU21D;58487;53.474;49.470;2022-09-12T14:28:39;14.50;118.99
70867;HTU21D;58487;53.474;49.470;2022-09-12T14:33:49;14.59;118.99
70867;HTU21D;58487;53.474;49.470;2022-09-12T14:39:02;14.44;118.99
70867;HTU21D;58487;53.474;49.470;2022-09-12T14:41:37;14.42;118.99
70867;HTU21D;58487;53.474;49.470;2022-09-12T14:44:07;14.37;118.99
70867;HTU21D;58487;53.474;49.470;2022-09-12T14:46:40;14.42;118.99
70867;HTU21D;58487;53.474;49.470;2022-09-12T14:49:19;14.43;118.99
70867;HTU21D;58487;53.474;49.470;2022-09-12T14:51:57;14.32;118.99
70867;HTU21D;58487;53.474;49.470;2022-09-12T14:54:34;14.11;118.99
70867;HTU21D;58487;53.474;49.470;2022-09-12T14:57:38;14.26;118.99
70867;HTU21D;58487;53.474;49.470;2022-09-12T15:02:36;14.13;118.99
70867;HTU21D;58487;53.474;49.470;2022-09-12T15:10:14;14.19;118.99
70867;HTU21D;58487;53.474;49.470;2022-09-12T15:12:41;14.23;118.99
70867;HTU21D;58487;53.474;49.470;2022-09-12T15:15:19;14.19;118.99
70867;HTU21D;58487;53.474;49.470;2022-09-12T15:17:45;14.21;118.99
70867;HTU21D;58487;53.474;49.470;2022-09-12T15:20:12;14.24;118.99
70867;HTU21D;58487;53.474;49.470;2022-09-12T15:22:39;14.18;118.99
70867;HTU21D;58487;53.474;49.470;2022-09-12T15:25:06;14.11;118.99
70867;HTU21D;58487;53.474;49.470;2022-09-12T15:27:34;14.10;118.99
70867;HTU21D;58487;53.474;49.470;2022-09-12T15:30:00;14.17;118.99
70867;HTU21D;58487;53.474;49.470;2022-09-12T15:32:30;14.06;118.99
70867;HTU21D;58487;53.474;49.470;2022-09-12T15:34:56;14.01;118.99
70867;HTU21D;58487;53.474;49.470;2022-09-12T15:37:22;14.01;118.99
70867;HTU21D;58487;53.474;49.470;2022-09-12T15:39:49;13.92;118.99
70867;HTU21D;58487;53.474;49.470;2022-09-12T15:42:26;13.89;118.99
70867;HTU21D;58487;53.474;49.470;2022-09-12T15:44:53;13.96;118.99
70867;HTU21D;58487;53.474;49.470;2022-09-12T15:47:19;13.97;118.99
70867;HTU21D;58487;53.474;49.470;2022-09-12T15:49:47;13.94;118.99
70867;HTU21D;58487;53.474;49.470;2022-09-12T15:52:15;13.77;118.99
70867;HTU21D;58487;53.474;49.470;2022-09-12T15:54:42;13.80;118.99
70867;HTU21D;58487;53.474;49.470;2022-09-12T15:57:08;13.83;118.99
70867;HTU21D;58487;53.474;49.470;2022-09-12T15:59:35;13.78;118.99
70867;HTU21D;58487;53.474;49.470;2022-09-12T16:02:01;13.60;118.99
70867;HTU21D;58487;53.474;49.470;2022-09-12T16:04:28;13.73;118.99
70867;HTU21D;58487;53.474;49.470;2022-09-12T16:06:55;13.68;118.99
70867;HTU21D;58487;53.474;49.470;2022-09-12T16:09:22;13.67;118.99
70867;HTU21D;58487;53.474;49.470;2022-09-12T16:11:49;13.68;118.99
70867;HTU21D;58487;53.474;49.470;2022-09-12T16:14:17;13.62;118.99
70867;HTU21D;58487;53.474;49.470;2022-09-12T16:16:47;13.71;118.99
70867;HTU21D;58487;53.474;49.470;2022-09-12T16:19:17;13.73;118.99
70867;HTU21D;58487;53.474;49.470;2022-09-12T16:21:43;13.73;118.99
70867;HTU21D;58487;53.474;49.470;2022-09-12T16:24:09;13.56;118.99
70867;HTU21D;58487;53.474;49.470;2022-09-12T16:26:35;13.59;118.99
70867;HTU21D;58487;53.474;49.470;2022-09-12T16:29:01;13.52;118.99
70867;HTU21D;58487;53.474;49.470;2022-09-12T16:31:27;13.65;118.99
70867;HTU21D;58487;53.474;49.470;2022-09-12T16:33:53;13.56;118.99
70867;HTU21D;58487;53.474;49.470;2022-09-12T16:36:20;13.61;118.99
70867;HTU21D;58487;53.474;49.470;2022-09-12T16:38:51;13.65;118.99
70867;HTU21D;58487;53.474;49.470;2022-09-12T16:41:19;13.62;118.99
70867;HTU21D;58487;53.474;49.470;2022-09-12T16:43:46;13.41;118.99
70867;HTU21D;58487;53.474;49.470;2022-09-12T16:46:15;13.54;118.99
70867;HTU21D;58487;53.474;49.470;2022-09-12T16:48:42;13.55;118.99
70867;HTU21D;58487;53.474;49.470;2022-09-12T16:51:15;13.50;118.99
70867;HTU21D;58487;53.474;49.470;2022-09-12T16:53:42;13.32;118.99
70867;HTU21D;58487;53.474;49.470;2022-09-12T16:56:08;13.47;118.99
70867;HTU21D;58487;53.474;49.470;2022-09-12T16:58:36;13.35;118.99
70867;HTU21D;58487;53.474;49.470;2022-09-12T17:01:07;13.37;118.99
70867;HTU21D;58487;53.474;49.470;2022-09-12T17:03:36;13.38;118.99
70867;HTU21D;58487;53.474;49.470;2022-09-12T17:06:24;13.36;118.99
70867;HTU21D;58487;53.474;49.470;2022-09-12T17:08:52;13.34;118.99
70867;HTU21D;58487;53.474;49.470;2022-09-12T17:11:24;13.33;118.99
70867;HTU21D;58487;53.474;49.470;2022-09-12T17:13:53;13.32;118.99
70867;HTU21D;58487;53.474;49.470;2022-09-12T17:16:21;13.36;118.99
70867;HTU21D;58487;53.474;49.470;2022-09-12T17:18:47;13.25;118.99
70867;HTU21D;58487;53.474;49.470;2022-09-12T17:21:14;13.25;118.99
70867;HTU21D;58487;53.474;49.470;2022-09-12T17:23:41;13.25;118.99
70867;HTU21D;58487;53.474;49.470;2022-09-12T17:26:08;13.26;118.99
70867;HTU21D;58487;53.474;49.470;2022-09-12T17:28:36;13.14;118.99
70867;HTU21D;58487;53.474;49.470;2022-09-12T17:31:05;13.34;118.99
70867;HTU21D;58487;53.474;49.470;2022-09-12T17:33:35;13.29;118.99
70867;HTU21D;58487;53.474;49.470;2022-09-12T17:36:09;13.23;118.99
70867;HTU21D;58487;53.474;49.470;2022-09-12T17:38:38;13.12;118.99
70867;HTU21D;58487;53.474;49.470;2022-09-12T17:41:18;12.96;118.99
70867;HTU21D;58487;53.474;49.470;2022-09-12T17:43:45;13.17;118.99
70867;HTU21D;58487;53.474;49.470;2022-09-12T17:46:13;13.18;118.99
70867;HTU21D;58487;53.474;49.470;2022-09-12T17:48:39;12.93;118.99
70867;HTU21D;58487;53.474;49.470;2022-09-12T17:51:08;13.05;118.99
70867;HTU21D;58487;53.474;49.470;2022-09-12T17:53:35;12.84;118.99
70867;HTU21D;58487;53.474;49.470;2022-09-12T17:56:02;12.97;118.99
70867;HTU21D;58487;53.474;49.470;2022-09-12T17:58:30;13.08;118.99